Time;durP1;ratioP1;P1;durP2;ratioP2;P2;SDS_P1;SDS_P2;PMS_P1;PMS_P2;Temp;Humidity;BMP_temperature;BMP_pressure;BME280_temperature;BME280_humidity;BME280_pressure;Samples;Min_cycle;Max_cycle;Signal;HPM_P1;HPM_P2
2023/01/06 00:00:12;;;;;;;30.77;15.03;;;;;;;;;;5091012;28;20256;-63
2023/01/06 00:02:38;;;;;;;30.13;14.47;;;;;;;;;;5090576;28;20201;-64
2023/01/06 00:05:06;;;;;;;32.30;15.13;;;;;;;;;;5091112;28;20237;-64
2023/01/06 00:07:32;;;;;;;36.93;16.23;;;;;;;;;;5091037;28;20669;-65
2023/01/06 00:09:58;;;;;;;42.83;15.73;;;;;;;;;;5090810;28;20280;-66
2023/01/06 00:12:25;;;;;;;37.90;15.83;;;;;;;;;;5090946;28;20217;-65
2023/01/06 00:14:51;;;;;;;32.70;15.70;;;;;;;;;;5090521;28;20345;-65
2023/01/06 00:17:17;;;;;;;32.53;15.40;;;;;;;;;;5090841;28;20293;-65
2023/01/06 00:19:43;;;;;;;40.03;16.30;;;;;;;;;;5090921;28;20288;-65
2023/01/06 00:22:10;;;;;;;35.97;16.03;;;;;;;;;;5090658;28;20652;-64
2023/01/06 00:24:36;;;;;;;35.40;17.50;;;;;;;;;;5090682;28;20227;-64
2023/01/06 00:27:02;;;;;;;33.30;17.77;;;;;;;;;;5090575;28;20198;-64
2023/01/06 00:29:28;;;;;;;35.17;16.77;;;;;;;;;;5091202;28;20558;-65
2023/01/06 00:31:55;;;;;;;34.77;17.50;;;;;;;;;;5094306;28;20637;-65
2023/01/06 00:34:21;;;;;;;42.43;18.77;;;;;;;;;;5094541;28;20256;-65
2023/01/06 00:36:46;;;;;;;41.13;17.90;;;;;;;;;;5094171;28;20207;-63
2023/01/06 00:39:14;;;;;;;36.97;17.47;;;;;;;;;;5093947;28;20195;-63
2023/01/06 00:44:25;;;;;;;35.03;18.07;;;;;;;;;;5073859;28;20306;-63
2023/01/06 00:46:51;;;;;;;34.30;17.00;;;;;;;;;;5073673;28;20282;-65
2023/01/06 00:49:17;;;;;;;37.03;17.63;;;;;;;;;;5073886;28;20187;-65
2023/01/06 00:51:43;;;;;;;34.33;18.90;;;;;;;;;;5073523;28;20188;-65
2023/01/06 00:54:10;;;;;;;40.20;19.07;;;;;;;;;;5073572;28;20195;-65
2023/01/06 00:56:37;;;;;;;34.07;18.63;;;;;;;;;;5070005;28;20674;-65
2023/01/06 00:59:04;;;;;;;41.10;18.57;;;;;;;;;;5073716;28;20670;-65
2023/01/06 01:01:30;;;;;;;31.13;17.37;;;;;;;;;;5073479;28;20199;-65
2023/01/06 01:03:56;;;;;;;36.03;18.20;;;;;;;;;;5073533;28;20227;-65
2023/01/06 01:06:22;;;;;;;32.60;18.00;;;;;;;;;;5073428;28;20324;-65
2023/01/06 01:08:51;;;;;;;32.57;18.20;;;;;;;;;;5073409;28;20654;-65
2023/01/06 01:14:03;;;;;;;33.63;18.03;;;;;;;;;;5073500;28;20566;-65
2023/01/06 01:16:29;;;;;;;31.17;17.37;;;;;;;;;;5073356;28;20207;-64
2023/01/06 01:18:55;;;;;;;31.23;18.57;;;;;;;;;;5073474;28;20230;-63
2023/01/06 01:21:21;;;;;;;35.43;19.30;;;;;;;;;;5073238;28;20231;-63
2023/01/06 01:23:47;;;;;;;33.73;18.87;;;;;;;;;;5091269;28;20214;-65
2023/01/06 01:26:13;;;;;;;35.07;19.60;;;;;;;;;;5093363;28;20699;-62
2023/01/06 01:28:39;;;;;;;35.10;19.73;;;;;;;;;;5093452;28;20233;-64
2023/01/06 01:31:06;;;;;;;30.43;18.83;;;;;;;;;;5093561;28;20222;-63
2023/01/06 01:33:32;;;;;;;33.00;19.17;;;;;;;;;;5093247;28;20589;-66
2023/01/06 01:36:04;;;;;;;35.27;20.30;;;;;;;;;;5093151;28;20250;-66
2023/01/06 01:38:30;;;;;;;28.13;19.40;;;;;;;;;;5093346;28;20294;-66
2023/01/06 01:40:56;;;;;;;32.00;19.77;;;;;;;;;;5093040;28;20653;-66
2023/01/06 01:43:22;;;;;;;32.47;19.83;;;;;;;;;;5093188;28;20233;-66
2023/01/06 01:45:50;;;;;;;31.57;18.73;;;;;;;;;;5092942;28;20221;-66
2023/01/06 01:48:23;;;;;;;30.57;18.53;;;;;;;;;;5092907;28;20202;-66
2023/01/06 01:50:51;;;;;;;30.67;18.97;;;;;;;;;;5092747;28;20402;-66
2023/01/06 01:53:19;;;;;;;24.43;17.80;;;;;;;;;;5093180;28;20201;-66
2023/01/06 01:55:45;;;;;;;25.17;18.10;;;;;;;;;;5093155;28;20256;-66
2023/01/06 01:58:13;;;;;;;27.40;18.37;;;;;;;;;;5092845;28;20473;-66
2023/01/06 02:00:40;;;;;;;25.50;18.10;;;;;;;;;;5092781;28;20619;-66
2023/01/06 02:03:07;;;;;;;25.07;18.77;;;;;;;;;;5092744;28;20230;-66
2023/01/06 02:05:36;;;;;;;24.93;17.43;;;;;;;;;;5092737;28;20202;-66
2023/01/06 02:08:05;;;;;;;23.37;17.27;;;;;;;;;;5092656;28;20615;-66
2023/01/06 02:10:31;;;;;;;26.23;17.93;;;;;;;;;;5093102;28;20201;-66
2023/01/06 02:12:58;;;;;;;19.80;15.77;;;;;;;;;;5092425;28;20550;-66
2023/01/06 02:15:26;;;;;;;22.53;16.57;;;;;;;;;;5092634;28;20739;-66
2023/01/06 02:18:16;;;;;;;21.60;16.07;;;;;;;;;;5092451;28;20545;-66
2023/01/06 02:20:51;;;;;;;22.43;14.97;;;;;;;;;;5092528;28;20217;-66
2023/01/06 02:23:25;;;;;;;23.90;15.00;;;;;;;;;;5092354;28;20226;-66
2023/01/06 02:26:03;;;;;;;19.13;14.93;;;;;;;;;;5092433;28;20283;-66
2023/01/06 02:28:39;;;;;;;21.93;14.67;;;;;;;;;;5092532;28;20667;-66
2023/01/06 02:31:29;;;;;;;18.57;14.70;;;;;;;;;;5092180;28;20528;-66
2023/01/06 02:33:58;;;;;;;24.43;15.93;;;;;;;;;;5071455;28;20607;-66
2023/01/06 02:36:31;;;;;;;21.77;14.40;;;;;;;;;;5092241;28;20206;-66
2023/01/06 02:39:03;;;;;;;19.83;14.53;;;;;;;;;;5091954;28;20197;-66
2023/01/06 02:41:32;;;;;;;20.47;14.20;;;;;;;;;;5091950;28;20203;-66
2023/01/06 02:44:00;;;;;;;18.27;12.60;;;;;;;;;;5091977;28;20231;-66
2023/01/06 02:46:34;;;;;;;16.70;12.27;;;;;;;;;;5092151;28;20244;-66
2023/01/06 02:49:09;;;;;;;17.83;12.60;;;;;;;;;;5091977;28;20193;-66
2023/01/06 02:51:41;;;;;;;12.53;11.17;;;;;;;;;;5092006;28;20567;-66
2023/01/06 02:54:10;;;;;;;14.17;11.10;;;;;;;;;;5091672;28;20199;-66
2023/01/06 02:56:39;;;;;;;13.50;10.13;;;;;;;;;;5091726;28;20211;-66
2023/01/06 02:59:07;;;;;;;12.90;9.27;;;;;;;;;;5091610;28;20900;-66
2023/01/06 03:01:36;;;;;;;10.60;8.97;;;;;;;;;;5091858;28;20207;-66
2023/01/06 03:04:05;;;;;;;11.40;9.43;;;;;;;;;;5091644;28;20292;-66
2023/01/06 03:06:32;;;;;;;10.13;8.43;;;;;;;;;;5091603;28;20649;-67
2023/01/06 03:08:59;;;;;;;8.93;7.57;;;;;;;;;;5091509;28;20195;-66
2023/01/06 03:11:27;;;;;;;9.57;7.90;;;;;;;;;;5091847;28;20214;-66
2023/01/06 03:13:55;;;;;;;10.73;7.50;;;;;;;;;;5091479;28;20595;-66
2023/01/06 03:16:21;;;;;;;9.30;7.50;;;;;;;;;;5091625;28;20205;-66
2023/01/06 03:18:48;;;;;;;11.67;7.10;;;;;;;;;;5091638;28;20287;-66
2023/01/06 03:21:18;;;;;;;8.37;7.03;;;;;;;;;;5091659;28;20198;-66
2023/01/06 03:23:45;;;;;;;7.07;6.37;;;;;;;;;;5091207;28;20222;-66
2023/01/06 03:26:11;;;;;;;9.27;6.60;;;;;;;;;;5091673;28;20203;-68
2023/01/06 03:28:37;;;;;;;7.97;6.70;;;;;;;;;;5091492;28;20276;-67
2023/01/06 03:31:07;;;;;;;9.00;6.50;;;;;;;;;;5091391;28;20661;-67
2023/01/06 03:33:37;;;;;;;8.93;7.07;;;;;;;;;;5091629;28;20194;-67
2023/01/06 03:36:07;;;;;;;8.43;7.47;;;;;;;;;;5091334;28;20749;-67
2023/01/06 03:38:41;;;;;;;8.33;6.73;;;;;;;;;;5091431;28;20195;-67
2023/01/06 03:41:11;;;;;;;9.63;7.70;;;;;;;;;;5091346;28;20203;-67
2023/01/06 03:43:39;;;;;;;10.70;8.43;;;;;;;;;;5091220;28;20692;-65
2023/01/06 03:46:11;;;;;;;10.10;7.93;;;;;;;;;;5091285;28;20215;-65
2023/01/06 03:48:42;;;;;;;9.17;8.00;;;;;;;;;;5091410;28;20733;-67
2023/01/06 03:51:10;;;;;;;11.47;8.47;;;;;;;;;;5091449;28;20199;-65
2023/01/06 03:53:40;;;;;;;14.30;8.93;;;;;;;;;;5091412;28;20195;-67
2023/01/06 03:56:12;;;;;;;10.87;8.97;;;;;;;;;;5091204;28;20195;-65
2023/01/06 03:58:40;;;;;;;11.00;9.40;;;;;;;;;;5091211;28;20731;-65
2023/01/06 04:01:07;;;;;;;14.17;9.70;;;;;;;;;;5091449;28;20644;-65
2023/01/06 04:03:33;;;;;;;12.07;10.83;;;;;;;;;;5091322;28;20226;-67
2023/01/06 04:05:59;;;;;;;11.80;10.00;;;;;;;;;;5094302;28;20191;-67
2023/01/06 04:08:26;;;;;;;12.67;10.87;;;;;;;;;;5095269;28;20619;-65
2023/01/06 04:10:53;;;;;;;13.33;10.90;;;;;;;;;;5094954;28;20195;-65
2023/01/06 04:13:19;;;;;;;12.67;10.43;;;;;;;;;;5094921;28;20213;-67
2023/01/06 04:15:45;;;;;;;13.40;12.00;;;;;;;;;;5095036;28;20191;-66
2023/01/06 04:18:11;;;;;;;13.97;12.00;;;;;;;;;;5094875;28;20601;-64
2023/01/06 04:20:37;;;;;;;14.50;12.10;;;;;;;;;;5094977;28;20210;-67
2023/01/06 04:23:03;;;;;;;16.00;12.60;;;;;;;;;;5094401;28;20630;-67
2023/01/06 04:25:29;;;;;;;15.13;11.70;;;;;;;;;;5094828;28;20237;-65
2023/01/06 04:27:56;;;;;;;13.70;12.30;;;;;;;;;;5094638;28;20201;-67
2023/01/06 04:30:22;;;;;;;12.60;11.37;;;;;;;;;;5094526;28;20617;-65
2023/01/06 04:32:48;;;;;;;14.47;11.77;;;;;;;;;;5094660;28;20218;-65
2023/01/06 04:35:14;;;;;;;15.00;12.90;;;;;;;;;;5094435;28;20613;-66
2023/01/06 04:37:40;;;;;;;15.10;11.63;;;;;;;;;;5094438;28;20187;-67
2023/01/06 04:40:07;;;;;;;16.97;13.53;;;;;;;;;;5094382;28;20244;-67
2023/01/06 04:43:03;;;;;;;15.77;13.33;;;;;;;;;;5094363;28;20662;-67
2023/01/06 04:45:20;;;;;;;14.03;12.63;;;;;;;;;;5094148;28;20205;-67
2023/01/06 04:47:46;;;;;;;15.97;12.37;;;;;;;;;;5094442;28;20278;-66
2023/01/06 04:50:12;;;;;;;14.53;12.97;;;;;;;;;;5094113;28;20299;-67
2023/01/06 04:52:38;;;;;;;17.63;12.83;;;;;;;;;;5094242;28;20195;-67
2023/01/06 04:55:04;;;;;;;17.30;12.70;;;;;;;;;;5094035;28;20205;-67
2023/01/06 04:57:30;;;;;;;14.57;12.93;;;;;;;;;;5093996;28;20227;-65
2023/01/06 04:59:56;;;;;;;16.80;13.70;;;;;;;;;;5094029;28;20688;-65
2023/01/06 05:02:24;;;;;;;15.23;13.73;;;;;;;;;;5093825;28;20203;-65
2023/01/06 05:04:50;;;;;;;14.83;13.33;;;;;;;;;;5093891;28;20218;-65
2023/01/06 05:07:16;;;;;;;14.93;13.37;;;;;;;;;;5094080;28;20726;-65
2023/01/06 05:09:41;;;;;;;15.07;13.40;;;;;;;;;;5093763;28;20294;-65
2023/01/06 05:12:07;;;;;;;14.80;13.27;;;;;;;;;;5093667;28;20206;-65
2023/01/06 05:14:33;;;;;;;14.33;12.93;;;;;;;;;;5093647;28;20285;-66
2023/01/06 05:16:59;;;;;;;16.23;13.53;;;;;;;;;;5093334;28;20198;-66
2023/01/06 05:19:27;;;;;;;13.57;12.23;;;;;;;;;;5093940;28;20199;-65
2023/01/06 05:21:53;;;;;;;14.97;12.27;;;;;;;;;;5093338;28;20245;-65
2023/01/06 05:24:19;;;;;;;13.03;11.63;;;;;;;;;;5093624;28;20234;-66
2023/01/06 05:26:44;;;;;;;13.67;12.13;;;;;;;;;;5093368;28;20225;-65
2023/01/06 05:29:12;;;;;;;12.67;11.27;;;;;;;;;;5093747;28;20195;-67
2023/01/06 05:31:38;;;;;;;11.97;10.80;;;;;;;;;;5093565;28;20213;-66
2023/01/06 05:34:04;;;;;;;13.40;10.97;;;;;;;;;;5093095;28;20215;-65
2023/01/06 05:36:31;;;;;;;11.27;10.23;;;;;;;;;;5093600;28;20248;-66
2023/01/06 05:38:57;;;;;;;10.60;9.37;;;;;;;;;;5093394;28;20214;-66
2023/01/06 05:41:23;;;;;;;11.10;8.67;;;;;;;;;;5093265;28;20198;-65
2023/01/06 05:43:49;;;;;;;9.50;8.63;;;;;;;;;;5093198;28;20314;-65
2023/01/06 05:46:15;;;;;;;9.47;8.67;;;;;;;;;;5093079;28;20229;-65
2023/01/06 05:48:41;;;;;;;8.43;6.83;;;;;;;;;;5093263;28;20203;-65
2023/01/06 05:51:08;;;;;;;7.57;6.63;;;;;;;;;;5093045;28;20203;-67
2023/01/06 05:53:36;;;;;;;8.33;6.70;;;;;;;;;;5093192;28;20244;-65
2023/01/06 05:56:02;;;;;;;10.10;7.13;;;;;;;;;;5093091;28;20233;-65
2023/01/06 05:58:29;;;;;;;8.73;6.60;;;;;;;;;;5092987;28;20282;-65
2023/01/06 06:00:55;;;;;;;7.07;6.40;;;;;;;;;;5093037;28;20206;-66
2023/01/06 06:03:21;;;;;;;7.67;5.80;;;;;;;;;;5092771;28;20226;-65
2023/01/06 06:05:47;;;;;;;6.93;6.23;;;;;;;;;;5093060;28;20214;-65
2023/01/06 06:08:13;;;;;;;7.47;6.67;;;;;;;;;;5092769;28;20241;-65
2023/01/06 06:10:40;;;;;;;9.13;6.00;;;;;;;;;;5092592;28;20199;-65
2023/01/06 06:13:06;;;;;;;6.50;5.90;;;;;;;;;;5092575;28;20209;-65
2023/01/06 06:15:32;;;;;;;7.13;6.30;;;;;;;;;;5092583;28;20195;-64
2023/01/06 06:17:58;;;;;;;11.47;8.10;;;;;;;;;;5092354;28;20207;-65
2023/01/06 06:20:24;;;;;;;8.87;5.53;;;;;;;;;;5092704;28;20278;-64
2023/01/06 06:22:50;;;;;;;8.03;5.13;;;;;;;;;;5092186;28;20632;-64
2023/01/06 06:25:16;;;;;;;11.87;7.20;;;;;;;;;;5092282;28;20226;-64
2023/01/06 06:27:43;;;;;;;14.37;7.90;;;;;;;;;;5091851;28;20558;-64
2023/01/06 06:30:09;;;;;;;10.27;7.10;;;;;;;;;;5092235;28;20218;-64
2023/01/06 06:32:35;;;;;;;9.30;5.40;;;;;;;;;;5092393;28;20707;-64
2023/01/06 06:35:01;;;;;;;4.43;3.43;;;;;;;;;;5092030;28;20207;-66
2023/01/06 06:37:27;;;;;;;4.43;3.20;;;;;;;;;;5092376;28;20199;-65
2023/01/06 06:39:53;;;;;;;5.50;3.07;;;;;;;;;;5092056;28;20692;-64
2023/01/06 06:42:19;;;;;;;6.93;3.00;;;;;;;;;;5091971;28;20206;-64
2023/01/06 06:44:46;;;;;;;4.73;3.10;;;;;;;;;;5092129;28;20262;-65
2023/01/06 06:47:13;;;;;;;4.10;2.60;;;;;;;;;;5092124;28;20275;-64
2023/01/06 06:49:39;;;;;;;4.27;2.47;;;;;;;;;;5092169;28;20211;-63
2023/01/06 06:52:05;;;;;;;3.90;2.47;;;;;;;;;;5091970;28;20203;-64
2023/01/06 06:54:31;;;;;;;3.17;2.10;;;;;;;;;;5091926;28;20552;-64
2023/01/06 06:56:57;;;;;;;3.73;2.10;;;;;;;;;;5091975;28;20206;-64
2023/01/06 06:59:23;;;;;;;3.27;2.40;;;;;;;;;;5092138;28;20199;-64
2023/01/06 07:01:50;;;;;;;4.13;2.40;;;;;;;;;;5091965;28;20639;-64
2023/01/06 07:04:16;;;;;;;5.90;2.73;;;;;;;;;;5091550;28;20549;-64
2023/01/06 07:06:42;;;;;;;3.23;2.07;;;;;;;;;;5091923;28;20202;-64
2023/01/06 07:09:08;;;;;;;4.80;1.97;;;;;;;;;;5091750;28;20199;-63
2023/01/06 07:11:34;;;;;;;2.50;1.90;;;;;;;;;;5091627;28;20206;-64
2023/01/06 07:14:00;;;;;;;3.33;1.97;;;;;;;;;;5091665;28;20714;-63
2023/01/06 07:16:26;;;;;;;2.77;1.80;;;;;;;;;;5091640;28;20191;-64
2023/01/06 07:18:53;;;;;;;2.10;1.60;;;;;;;;;;5091459;28;20253;-64
2023/01/06 07:21:19;;;;;;;3.17;1.60;;;;;;;;;;5091599;28;20213;-63
2023/01/06 07:23:45;;;;;;;4.50;1.80;;;;;;;;;;5091480;28;20594;-64
2023/01/06 07:26:14;;;;;;;4.30;1.90;;;;;;;;;;5091516;28;20197;-64
2023/01/06 07:28:40;;;;;;;2.07;1.60;;;;;;;;;;5091960;28;20658;-64
2023/01/06 07:31:06;;;;;;;3.13;1.87;;;;;;;;;;5091315;28;20195;-63
2023/01/06 07:33:32;;;;;;;3.83;1.70;;;;;;;;;;5091522;28;20198;-63
2023/01/06 07:35:59;;;;;;;5.57;2.37;;;;;;;;;;5091326;28;20235;-63
2023/01/06 07:38:25;;;;;;;3.33;1.83;;;;;;;;;;5091970;28;20195;-64
2023/01/06 07:40:51;;;;;;;2.53;1.67;;;;;;;;;;5095666;28;20198;-64
2023/01/06 07:43:17;;;;;;;3.73;1.93;;;;;;;;;;5095411;28;20278;-64
2023/01/06 07:45:45;;;;;;;4.07;1.93;;;;;;;;;;5095782;28;20258;-64
2023/01/06 07:48:11;;;;;;;2.97;1.70;;;;;;;;;;5095346;28;20195;-64
2023/01/06 07:50:37;;;;;;;4.10;1.70;;;;;;;;;;5095424;28;20282;-64
2023/01/06 07:53:04;;;;;;;4.63;1.73;;;;;;;;;;5095432;28;20737;-64
2023/01/06 07:55:30;;;;;;;4.43;1.80;;;;;;;;;;5095222;28;20202;-64
2023/01/06 07:57:57;;;;;;;2.77;2.47;;;;;;;;;;5094898;28;20199;-64
2023/01/06 08:00:23;;;;;;;2.33;1.60;;;;;;;;;;5095303;28;20205;-64
2023/01/06 08:02:49;;;;;;;3.77;1.93;;;;;;;;;;5095066;28;20710;-64
2023/01/06 08:05:16;;;;;;;3.20;1.83;;;;;;;;;;5095268;28;20223;-63
2023/01/06 08:07:42;;;;;;;3.40;1.83;;;;;;;;;;5095055;28;20286;-63
2023/01/06 08:10:09;;;;;;;3.07;2.00;;;;;;;;;;5094979;28;20225;-64
2023/01/06 08:12:36;;;;;;;3.43;1.80;;;;;;;;;;5095094;28;20195;-64
2023/01/06 08:15:02;;;;;;;3.77;1.83;;;;;;;;;;5094901;28;20203;-63
2023/01/06 08:17:29;;;;;;;4.57;2.30;;;;;;;;;;5095415;28;20201;-64
2023/01/06 08:19:55;;;;;;;2.77;1.97;;;;;;;;;;5094830;28;20258;-64
2023/01/06 08:22:21;;;;;;;3.47;1.83;;;;;;;;;;5094674;28;20269;-63
2023/01/06 08:24:47;;;;;;;2.00;1.80;;;;;;;;;;5094658;28;20577;-64
2023/01/06 08:27:14;;;;;;;2.90;2.07;;;;;;;;;;5094590;28;20256;-64
2023/01/06 08:29:40;;;;;;;3.00;2.07;;;;;;;;;;5094740;28;20229;-64
2023/01/06 08:32:06;;;;;;;2.37;2.17;;;;;;;;;;5094567;28;20203;-64
2023/01/06 08:34:32;;;;;;;3.57;2.23;;;;;;;;;;5094613;28;20211;-61
2023/01/06 08:36:58;;;;;;;5.00;2.50;;;;;;;;;;5094681;28;20643;-64
2023/01/06 08:39:24;;;;;;;3.17;2.17;;;;;;;;;;5094530;28;20683;-63
2023/01/06 08:41:50;;;;;;;3.30;2.07;;;;;;;;;;5094708;28;20195;-64
2023/01/06 08:44:18;;;;;;;4.00;2.30;;;;;;;;;;5094289;28;20265;-64
2023/01/06 08:46:44;;;;;;;4.43;2.20;;;;;;;;;;5094301;28;20202;-64
2023/01/06 08:49:10;;;;;;;2.50;2.30;;;;;;;;;;5094387;28;20190;-64
2023/01/06 08:51:36;;;;;;;5.30;2.40;;;;;;;;;;5093628;28;20614;-64
2023/01/06 08:54:02;;;;;;;4.93;2.30;;;;;;;;;;5094146;28;20183;-65
2023/01/06 08:56:30;;;;;;;4.43;2.50;;;;;;;;;;5094273;28;20206;-65
2023/01/06 08:58:57;;;;;;;3.77;2.30;;;;;;;;;;5094267;28;20297;-65
2023/01/06 09:01:25;;;;;;;4.23;2.37;;;;;;;;;;5094364;28;20199;-65
2023/01/06 09:03:51;;;;;;;3.17;2.57;;;;;;;;;;5094037;28;20246;-65
2023/01/06 09:06:17;;;;;;;2.50;2.30;;;;;;;;;;5093857;28;20230;-65
2023/01/06 09:08:43;;;;;;;5.40;2.73;;;;;;;;;;5094063;28;20195;-66
2023/01/06 09:11:10;;;;;;;5.17;2.70;;;;;;;;;;5093861;28;20530;-66
2023/01/06 09:13:36;;;;;;;2.50;2.30;;;;;;;;;;5093854;28;20661;-66
2023/01/06 09:16:04;;;;;;;4.83;2.50;;;;;;;;;;5093976;28;20238;-66
2023/01/06 09:18:31;;;;;;;3.00;2.80;;;;;;;;;;5093711;28;20631;-68
2023/01/06 09:20:57;;;;;;;2.90;2.60;;;;;;;;;;5093811;28;20214;-67
2023/01/06 09:23:23;;;;;;;3.83;2.80;;;;;;;;;;5093605;28;20226;-68
2023/01/06 09:25:49;;;;;;;3.33;3.00;;;;;;;;;;5093605;28;20556;-66
2023/01/06 09:28:16;;;;;;;5.37;3.23;;;;;;;;;;5093571;28;20194;-67
2023/01/06 09:30:42;;;;;;;4.60;2.90;;;;;;;;;;5093626;28;20198;-67
2023/01/06 09:33:08;;;;;;;5.07;3.17;;;;;;;;;;5093567;28;20202;-67
2023/01/06 09:35:35;;;;;;;3.93;3.00;;;;;;;;;;5093470;28;20215;-66
2023/01/06 09:38:01;;;;;;;5.37;3.10;;;;;;;;;;5093300;28;20199;-67
2023/01/06 09:40:31;;;;;;;4.13;3.40;;;;;;;;;;5093312;28;20198;-66
2023/01/06 09:43:04;;;;;;;3.83;3.53;;;;;;;;;;5093386;28;20238;-67
2023/01/06 09:45:34;;;;;;;4.03;3.00;;;;;;;;;;5093118;28;20229;-67
2023/01/06 09:48:00;;;;;;;4.63;3.07;;;;;;;;;;5093090;28;20203;-67
2023/01/06 09:50:30;;;;;;;5.40;3.83;;;;;;;;;;5093234;28;20286;-67
2023/01/06 09:52:59;;;;;;;7.10;4.30;;;;;;;;;;5093213;28;20203;-65
2023/01/06 09:55:28;;;;;;;7.73;5.20;;;;;;;;;;5092858;28;20199;-61
2023/01/06 09:57:56;;;;;;;5.43;4.60;;;;;;;;;;5092825;28;20202;-65
2023/01/06 10:00:27;;;;;;;5.87;5.37;;;;;;;;;;5092744;28;20593;-63
2023/01/06 10:02:55;;;;;;;5.50;5.00;;;;;;;;;;5091965;28;20245;-62
2023/01/06 10:05:25;;;;;;;5.40;5.00;;;;;;;;;;5081924;28;20229;-63
2023/01/06 10:07:56;;;;;;;5.47;5.07;;;;;;;;;;5091479;28;20293;-64
2023/01/06 10:10:30;;;;;;;7.20;5.00;;;;;;;;;;5092356;28;20237;-63
2023/01/06 10:13:01;;;;;;;5.83;5.33;;;;;;;;;;5092008;28;20234;-63
2023/01/06 10:15:32;;;;;;;6.03;5.53;;;;;;;;;;5092718;28;20579;-63
2023/01/06 10:18:04;;;;;;;6.13;5.53;;;;;;;;;;5092576;28;20686;-63
2023/01/06 10:20:44;;;;;;;5.10;4.53;;;;;;;;;;5090493;28;20700;-65
2023/01/06 10:23:18;;;;;;;4.33;4.03;;;;;;;;;;5090720;28;20230;-66
2023/01/06 10:25:49;;;;;;;4.77;4.37;;;;;;;;;;5092293;28;20202;-65
2023/01/06 10:28:19;;;;;;;5.70;5.23;;;;;;;;;;5092116;28;20252;-64
2023/01/06 10:30:46;;;;;;;6.43;5.63;;;;;;;;;;5092246;28;20572;-63
2023/01/06 10:33:16;;;;;;;6.50;6.00;;;;;;;;;;5092179;28;20229;-65
2023/01/06 10:35:42;;;;;;;6.67;6.07;;;;;;;;;;5092130;28;20229;-65
2023/01/06 10:38:10;;;;;;;6.63;5.93;;;;;;;;;;5091939;28;20195;-65
2023/01/06 10:40:36;;;;;;;5.63;5.17;;;;;;;;;;5091989;28;20782;-64
2023/01/06 10:43:05;;;;;;;6.47;5.87;;;;;;;;;;5092011;28;20203;-65
2023/01/06 10:45:33;;;;;;;6.57;5.83;;;;;;;;;;5091731;28;20230;-66
2023/01/06 10:48:00;;;;;;;6.30;5.80;;;;;;;;;;5091657;28;20687;-66
2023/01/06 10:50:26;;;;;;;7.90;5.60;;;;;;;;;;5092023;28;20792;-66
2023/01/06 10:52:52;;;;;;;6.50;5.90;;;;;;;;;;5091953;28;20224;-66
2023/01/06 10:55:36;;;;;;;5.83;5.33;;;;;;;;;;5091713;28;20654;-61
2023/01/06 10:58:10;;;;;;;5.97;5.47;;;;;;;;;;5091998;28;20186;-63
2023/01/06 11:00:36;;;;;;;6.00;5.50;;;;;;;;;;5092229;28;20202;-63
2023/01/06 11:03:03;;;;;;;5.70;5.20;;;;;;;;;;5091683;28;20674;-63
2023/01/06 11:05:32;;;;;;;5.07;4.67;;;;;;;;;;5089858;28;20636;-62
2023/01/06 11:08:02;;;;;;;5.33;4.83;;;;;;;;;;5091419;28;20282;-62
2023/01/06 11:10:30;;;;;;;4.83;4.47;;;;;;;;;;5091603;28;20199;-62
2023/01/06 11:12:58;;;;;;;3.73;3.43;;;;;;;;;;5091256;28;20252;-62
2023/01/06 11:15:28;;;;;;;3.80;3.50;;;;;;;;;;5091147;28;20194;-63
2023/01/06 11:17:54;;;;;;;3.60;3.30;;;;;;;;;;5091453;28;20775;-63
2023/01/06 11:20:28;;;;;;;3.90;3.00;;;;;;;;;;5091031;28;20293;-63
2023/01/06 11:22:56;;;;;;;3.83;2.77;;;;;;;;;;5090986;28;20238;-64
2023/01/06 11:25:29;;;;;;;2.77;2.53;;;;;;;;;;5090932;28;20226;-64
2023/01/06 11:28:09;;;;;;;3.07;2.30;;;;;;;;;;5091044;28;20749;-65
2023/01/06 11:30:39;;;;;;;2.10;1.87;;;;;;;;;;5088455;28;20206;-67
2023/01/06 11:33:13;;;;;;;2.53;1.40;;;;;;;;;;5091002;28;20247;-65
2023/01/06 11:35:39;;;;;;;3.40;1.60;;;;;;;;;;5091038;28;20234;-66
2023/01/06 11:38:05;;;;;;;0.93;0.90;;;;;;;;;;5091038;28;20253;-66
2023/01/06 11:40:32;;;;;;;2.80;1.13;;;;;;;;;;5090982;28;20196;-66
2023/01/06 11:43:00;;;;;;;2.43;1.20;;;;;;;;;;5091479;28;20194;-66
2023/01/06 11:45:31;;;;;;;1.13;1.03;;;;;;;;;;5091229;28;20316;-67
2023/01/06 11:47:58;;;;;;;1.20;1.10;;;;;;;;;;5091471;28;20202;-66
2023/01/06 11:50:24;;;;;;;1.57;1.37;;;;;;;;;;5091249;28;20213;-67
2023/01/06 11:52:58;;;;;;;1.70;1.23;;;;;;;;;;5091326;28;20328;-67
2023/01/06 11:55:26;;;;;;;1.07;1.00;;;;;;;;;;5091280;28;20311;-68
2023/01/06 11:57:56;;;;;;;1.20;1.10;;;;;;;;;;5091455;28;20697;-67
2023/01/06 12:00:26;;;;;;;2.17;1.20;;;;;;;;;;5091503;28;20286;-67
2023/01/06 12:02:55;;;;;;;1.90;1.20;;;;;;;;;;5091329;28;20199;-67
2023/01/06 12:05:28;;;;;;;1.20;1.10;;;;;;;;;;5091151;28;20227;-67
2023/01/06 12:07:56;;;;;;;1.63;1.10;;;;;;;;;;5091389;28;20208;-68
2023/01/06 12:10:24;;;;;;;0.80;0.80;;;;;;;;;;5091138;28;20203;-68
2023/01/06 12:12:50;;;;;;;1.20;0.93;;;;;;;;;;5090040;28;20404;-68
2023/01/06 12:15:17;;;;;;;1.97;1.00;;;;;;;;;;5091380;28;20222;-68
2023/01/06 12:17:48;;;;;;;2.00;1.00;;;;;;;;;;5091241;28;20557;-69
2023/01/06 12:20:16;;;;;;;2.63;0.97;;;;;;;;;;5091209;28;20547;-69
2023/01/06 12:22:44;;;;;;;1.37;0.93;;;;;;;;;;5090797;28;20605;-67
2023/01/06 12:25:13;;;;;;;3.73;1.00;;;;;;;;;;5090514;28;20697;-68
2023/01/06 12:27:42;;;;;;;3.13;1.17;;;;;;;;;;5094774;28;20202;-68
2023/01/06 12:30:14;;;;;;;1.10;1.00;;;;;;;;;;5094569;28;20226;-69
2023/01/06 12:32:41;;;;;;;1.23;0.73;;;;;;;;;;5094624;28;20218;-69
2023/01/06 12:35:11;;;;;;;2.27;1.10;;;;;;;;;;5094178;28;20569;-62
2023/01/06 12:37:38;;;;;;;1.77;1.00;;;;;;;;;;5094688;28;20300;-66
2023/01/06 12:40:11;;;;;;;1.60;1.10;;;;;;;;;;5094527;28;20262;-66
2023/01/06 12:42:40;;;;;;;2.80;1.30;;;;;;;;;;5094795;28;20211;-66
2023/01/06 12:45:12;;;;;;;1.60;1.07;;;;;;;;;;5094359;28;20266;-66
2023/01/06 12:47:41;;;;;;;2.07;1.00;;;;;;;;;;5094364;28;20642;-67
2023/01/06 12:50:10;;;;;;;2.93;1.63;;;;;;;;;;5094437;28;20248;-67
2023/01/06 12:52:39;;;;;;;2.27;1.40;;;;;;;;;;5094677;28;20199;-66
2023/01/06 12:55:09;;;;;;;2.43;1.17;;;;;;;;;;5094421;28;20270;-67
2023/01/06 12:57:41;;;;;;;2.83;1.20;;;;;;;;;;5094355;28;20661;-67
2023/01/06 13:00:18;;;;;;;2.10;0.97;;;;;;;;;;5094243;28;20287;-69
2023/01/06 13:02:54;;;;;;;2.67;1.20;;;;;;;;;;5094124;28;20244;-68
2023/01/06 13:05:36;;;;;;;2.90;1.20;;;;;;;;;;5093780;28;20226;-65
2023/01/06 13:08:10;;;;;;;1.97;1.30;;;;;;;;;;5093812;28;20191;-65
2023/01/06 13:10:39;;;;;;;4.63;1.17;;;;;;;;;;5093954;28;20202;-62
2023/01/06 13:13:15;;;;;;;4.27;1.43;;;;;;;;;;5093717;28;20198;-65
2023/01/06 13:15:44;;;;;;;2.37;1.23;;;;;;;;;;5093841;28;20289;-66
2023/01/06 13:18:12;;;;;;;2.63;1.23;;;;;;;;;;5093721;28;20862;-65
2023/01/06 13:20:41;;;;;;;2.40;1.20;;;;;;;;;;5093744;28;20205;-65
2023/01/06 13:23:15;;;;;;;1.80;1.00;;;;;;;;;;5093648;28;20239;-64
2023/01/06 13:25:53;;;;;;;1.90;1.30;;;;;;;;;;5093644;28;20230;-60
2023/01/06 13:28:23;;;;;;;2.50;1.30;;;;;;;;;;5093654;28;20219;-62
2023/01/06 13:31:07;;;;;;;3.53;1.40;;;;;;;;;;5094010;28;20213;-61
2023/01/06 13:33:39;;;;;;;3.80;1.40;;;;;;;;;;5093623;28;20290;-61
2023/01/06 13:36:17;;;;;;;2.47;1.13;;;;;;;;;;5093395;28;20225;-63
2023/01/06 13:38:48;;;;;;;3.63;1.27;;;;;;;;;;5093615;28;20234;-62
2023/01/06 13:41:18;;;;;;;4.47;1.23;;;;;;;;;;5093524;28;20191;-62
2023/01/06 13:43:45;;;;;;;2.80;1.40;;;;;;;;;;5093280;28;20202;-62
2023/01/06 13:46:13;;;;;;;4.00;1.50;;;;;;;;;;5093268;28;20233;-62
2023/01/06 13:48:42;;;;;;;3.70;1.50;;;;;;;;;;5093386;28;20203;-62
2023/01/06 13:51:10;;;;;;;1.70;1.13;;;;;;;;;;5093524;28;20195;-62
2023/01/06 13:53:37;;;;;;;2.47;1.20;;;;;;;;;;5093144;28;20198;-63
2023/01/06 13:56:30;;;;;;;3.37;1.37;;;;;;;;;;5093332;28;20218;-62
2023/01/06 13:59:19;;;;;;;2.43;1.40;;;;;;;;;;5045408;28;20290;-62
2023/01/06 14:01:47;;;;;;;3.23;1.10;;;;;;;;;;5072533;28;20205;-63
2023/01/06 14:04:31;;;;;;;3.73;1.53;;;;;;;;;;5092951;28;20599;-70
2023/01/06 14:06:58;;;;;;;4.13;1.57;;;;;;;;;;5093051;28;20202;-70
2023/01/06 14:09:24;;;;;;;3.10;1.57;;;;;;;;;;5092807;28;20205;-70
2023/01/06 14:11:50;;;;;;;2.33;1.30;;;;;;;;;;5092959;28;20195;-69
2023/01/06 14:14:26;;;;;;;2.67;1.30;;;;;;;;;;5089944;28;20190;-70
2023/01/06 14:16:54;;;;;;;4.10;1.40;;;;;;;;;;5092279;28;20202;-70
2023/01/06 14:19:21;;;;;;;3.47;1.47;;;;;;;;;;5091877;28;20215;-69
2023/01/06 14:21:48;;;;;;;2.13;1.20;;;;;;;;;;5092144;28;20231;-70
2023/01/06 14:24:19;;;;;;;5.30;1.50;;;;;;;;;;5091971;28;20223;-69
2023/01/06 14:26:50;;;;;;;4.23;1.40;;;;;;;;;;5091936;28;20674;-69
2023/01/06 14:29:34;;;;;;;2.33;1.40;;;;;;;;;;5091952;28;20190;-69
2023/01/06 14:32:01;;;;;;;5.03;1.70;;;;;;;;;;5051297;28;20220;-70
2023/01/06 14:34:27;;;;;;;4.70;1.50;;;;;;;;;;5092001;28;20221;-69
2023/01/06 14:36:53;;;;;;;4.33;1.50;;;;;;;;;;5091804;28;20220;-70
2023/01/06 14:39:22;;;;;;;6.67;1.80;;;;;;;;;;5091780;28;20709;-70
2023/01/06 14:41:54;;;;;;;3.53;1.30;;;;;;;;;;5091915;28;20198;-69
2023/01/06 14:44:24;;;;;;;2.40;1.27;;;;;;;;;;5091704;28;20230;-69